Terminal Aerodrome Forecast
Issued by NWS

Current Version | Previous Version | Text Only | Print | Product List | Glossary On
Versions: 1 2 3 4 5 6 7 8 9 10 11 12 13 14 15 16 17 18 19 20 21 22
000
FTUS41 KBGM 020200 AAA
TAFRME
TAF AMD
KRME 020251Z 0203/0224 12005KT 3SM -SN OVC025
     FM020600 27007KT 3SM -SHSN OVC025
     FM021400 27015G25KT P6SM SCT025 BKN040=

USA.gov is the U.S. government's official web portal to all federal, state and local government web resources and services.